Time;durP1;ratioP1;P1;durP2;ratioP2;P2;SDS_P1;SDS_P2;PMS_P1;PMS_P2;Temp;Humidity;BMP_temperature;BMP_pressure;BME280_temperature;BME280_humidity;BME280_pressure;Samples;Min_cycle;Max_cycle;Signal;HPM_P1;HPM_P2
2021/01/09 00:02:18;;;;;;;9.77;8.65;;;24.00;96.20;;;;;;4930533;29;20032;-94
2021/01/09 00:05:32;;;;;;;12.40;9.18;;;24.00;96.40;;;;;;4931426;29;20079;-93
2021/01/09 00:08:45;;;;;;;19.23;10.25;;;24.00;96.40;;;;;;4840344;29;20037;-95
2021/01/09 00:11:43;;;;;;;11.77;5.82;;;24.00;96.20;;;;;;4870904;29;20045;-94
2021/01/09 00:14:25;;;;;;;13.10;4.97;;;24.10;96.30;;;;;;4834570;29;20049;-94
2021/01/09 00:17:16;;;;;;;5.10;3.60;;;24.10;96.40;;;;;;4817111;29;20079;-94
2021/01/09 00:19:56;;;;;;;4.90;3.00;;;23.90;96.50;;;;;;4820471;29;20349;-93
2021/01/09 00:22:47;;;;;;;3.75;2.47;;;24.00;96.40;;;;;;4781217;30;20150;-94
2021/01/09 00:25:19;;;;;;;4.32;1.90;;;24.00;96.30;;;;;;4815852;29;20102;-94
2021/01/09 00:27:47;;;;;;;3.95;1.95;;;23.90;96.30;;;;;;4831357;29;20145;-93
2021/01/09 00:30:16;;;;;;;3.47;1.80;;;24.00;96.70;;;;;;4801701;29;20085;-94
2021/01/09 00:33:11;;;;;;;3.03;1.63;;;24.00;96.30;;;;;;4827763;29;20041;-94
2021/01/09 00:35:42;;;;;;;3.00;1.63;;;24.00;96.20;;;;;;4820179;29;20030;-94
2021/01/09 00:38:13;;;;;;;;;;;24.00;96.20;;;;;;4842332;29;20105;-95
2021/01/09 00:40:39;;;;;;;2.10;0.98;;;24.00;96.10;;;;;;4856771;29;19904;-96
2021/01/09 00:43:51;;;;;;;1.02;0.80;;;24.00;95.90;;;;;;4872649;29;20045;-95
2021/01/09 00:46:29;;;;;;;2.05;0.80;;;24.00;95.70;;;;;;4900184;29;20043;-95
2021/01/09 00:49:11;;;;;;;2.80;0.80;;;24.00;95.80;;;;;;4924383;29;20069;-94
2021/01/09 00:52:18;;;;;;;2.70;0.80;;;23.90;96.20;;;;;;4907246;29;20037;-95
2021/01/09 00:54:50;;;;;;;2.15;0.50;;;23.90;95.70;;;;;;4900277;29;20055;-94
2021/01/09 00:57:19;;;;;;;2.13;0.73;;;23.90;95.70;;;;;;4916699;29;20035;-95
2021/01/09 01:00:09;;;;;;;6.05;0.90;;;23.90;95.50;;;;;;4930631;29;20066;-95
2021/01/09 01:03:42;;;;;;;;;;;;;;;;;;;;;
2021/01/09 01:06:12;;;;;;;1.50;0.60;;;23.80;95.40;;;;;;4961320;29;20077;-94
2021/01/09 01:08:42;;;;;;;4.00;0.80;;;23.80;95.50;;;;;;4933952;29;20035;-94
2021/01/09 01:15:19;;;;;;;1.35;0.45;;;23.80;95.40;;;;;;4834377;29;20039;-95
2021/01/09 01:18:16;;;;;;;1.58;0.50;;;23.70;95.60;;;;;;4826776;29;20033;-94
2021/01/09 01:20:45;;;;;;;0.63;0.40;;;23.80;95.50;;;;;;4868160;29;20342;-95
2021/01/09 01:23:12;;;;;;;2.17;0.50;;;23.80;95.60;;;;;;4836065;29;20113;-94
2021/01/09 01:25:45;;;;;;;0.60;0.50;;;23.90;95.50;;;;;;4921236;29;20032;-94
2021/01/09 01:28:25;;;;;;;1.55;0.65;;;23.80;95.50;;;;;;4960662;29;20035;-93
2021/01/09 01:30:53;;;;;;;2.60;1.08;;;23.80;95.60;;;;;;4929884;29;20044;-94
2021/01/09 01:33:27;;;;;;;1.70;0.75;;;23.80;95.60;;;;;;4930649;29;20040;-93
2021/01/09 01:36:01;;;;;;;3.47;0.85;;;23.70;95.50;;;;;;4947081;28;20031;-93
2021/01/09 01:38:29;;;;;;;1.60;0.88;;;23.70;96.10;;;;;;4949264;29;20031;-93
2021/01/09 01:41:10;;;;;;;4.88;0.75;;;23.70;96.30;;;;;;4917886;29;20059;-93
2021/01/09 01:43:40;;;;;;;1.80;0.80;;;23.80;96.10;;;;;;4950124;29;20039;-95
2021/01/09 01:46:24;;;;;;;2.67;1.23;;;23.80;96.10;;;;;;4936895;29;20096;-96
2021/01/09 01:49:07;;;;;;;2.50;1.17;;;23.90;96.00;;;;;;4958304;29;20350;-95
2021/01/09 01:51:36;;;;;;;3.15;1.77;;;24.00;95.80;;;;;;4921733;29;20039;-95
2021/01/09 01:54:15;;;;;;;3.63;2.00;;;24.00;95.50;;;;;;4912834;29;20028;-94
2021/01/09 01:57:03;;;;;;;8.85;6.22;;;24.00;95.40;;;;;;4926646;29;20099;-95
2021/01/09 01:59:34;;;;;;;9.82;6.35;;;23.90;95.30;;;;;;4918321;29;20072;-95
2021/01/09 02:02:16;;;;;;;15.52;10.05;;;23.80;94.90;;;;;;4917068;29;20039;-96
2021/01/09 02:04:51;;;;;;;10.50;8.75;;;23.70;94.60;;;;;;4909704;29;20044;-95
2021/01/09 02:07:52;;;;;;;22.13;14.75;;;23.60;94.70;;;;;;4902061;29;20150;-96
2021/01/09 02:10:25;;;;;;;14.38;10.07;;;23.60;94.80;;;;;;4930086;29;20066;-96
2021/01/09 02:13:22;;;;;;;6.28;4.88;;;23.50;94.80;;;;;;4905140;29;20040;-95
2021/01/09 02:16:31;;;;;;;8.30;4.47;;;23.40;94.70;;;;;;4930087;29;20027;-95
2021/01/09 02:22:00;;;;;;;6.50;1.30;;;23.30;94.90;;;;;;4896913;29;20032;-95
2021/01/09 02:24:33;;;;;;;3.40;1.00;;;23.40;94.90;;;;;;4922361;29;20025;-96
2021/01/09 02:27:15;;;;;;;1.13;0.40;;;23.30;94.80;;;;;;4918366;29;20379;-94
2021/01/09 02:30:08;;;;;;;2.67;0.60;;;23.30;94.70;;;;;;4936096;29;20351;-94
2021/01/09 02:36:10;;;;;;;1.73;0.40;;;23.20;94.50;;;;;;4855021;29;19912;-94
2021/01/09 02:38:38;;;;;;;1.02;0.63;;;23.20;94.50;;;;;;4839795;29;20345;-94
2021/01/09 02:41:08;;;;;;;2.63;0.80;;;23.30;94.70;;;;;;4850893;29;20104;-92
2021/01/09 02:43:37;;;;;;;2.30;0.77;;;23.30;94.50;;;;;;4871806;29;20347;-94
2021/01/09 02:46:04;;;;;;;4.50;0.68;;;23.20;94.20;;;;;;4879396;29;20036;-95
2021/01/09 02:48:55;;;;;;;1.27;0.60;;;23.20;94.00;;;;;;4913928;29;20039;-93
2021/01/09 02:51:21;;;;;;;1.65;0.40;;;23.20;94.10;;;;;;4932239;29;20044;-93
2021/01/09 02:53:50;;;;;;;4.05;0.50;;;23.20;93.90;;;;;;4931175;29;20028;-94
2021/01/09 02:56:20;;;;;;;6.10;3.20;;;23.20;94.40;;;;;;4949171;29;20070;-94
2021/01/09 02:58:52;;;;;;;2.28;0.80;;;23.20;94.20;;;;;;4936213;29;20055;-95
2021/01/09 03:01:19;;;;;;;2.75;1.40;;;23.20;93.90;;;;;;4951691;29;20040;-95
2021/01/09 03:03:45;;;;;;;3.05;0.70;;;23.10;94.10;;;;;;4950635;29;20228;-95
2021/01/09 03:06:12;;;;;;;1.15;0.63;;;23.10;94.00;;;;;;4955635;29;20100;-95
2021/01/09 03:08:41;;;;;;;3.25;0.40;;;23.20;94.00;;;;;;4953410;29;20327;-94
2021/01/09 03:11:26;;;;;;;2.25;0.43;;;23.20;93.60;;;;;;4938914;29;20044;-94
2021/01/09 03:13:55;;;;;;;2.72;1.23;;;23.20;93.60;;;;;;4952585;29;20043;-95
2021/01/09 03:16:25;;;;;;;1.38;0.60;;;23.20;93.60;;;;;;4953094;29;20027;-95
2021/01/09 03:18:54;;;;;;;0.70;0.30;;;23.20;93.60;;;;;;4972377;29;20082;-94
2021/01/09 03:21:20;;;;;;;0.38;0.30;;;23.20;93.80;;;;;;4951967;29;20032;-93
2021/01/09 03:23:47;;;;;;;1.15;0.40;;;23.20;93.70;;;;;;4950790;29;20031;-94
2021/01/09 03:26:14;;;;;;;0.85;0.20;;;23.10;93.80;;;;;;4952149;29;20035;-94
2021/01/09 03:28:40;;;;;;;0.30;0.17;;;23.10;93.80;;;;;;4952918;29;20071;-95
2021/01/09 03:31:07;;;;;;;0.17;0.10;;;23.10;93.80;;;;;;4951481;29;20035;-94
2021/01/09 03:33:43;;;;;;;0.40;0.40;;;23.10;93.80;;;;;;4951924;29;20027;-94
2021/01/09 03:36:12;;;;;;;0.93;0.25;;;23.10;93.80;;;;;;4936583;29;20366;-94
2021/01/09 03:38:42;;;;;;;3.25;0.30;;;23.10;93.90;;;;;;4951626;29;20118;-95
2021/01/09 03:41:09;;;;;;;2.65;0.20;;;23.10;93.80;;;;;;4951778;29;20030;-93
2021/01/09 03:43:56;;;;;;;1.27;0.35;;;23.10;93.60;;;;;;4950741;29;20097;-93
2021/01/09 03:46:40;;;;;;;0.25;0.10;;;23.10;93.60;;;;;;4950586;29;20042;-92
2021/01/09 03:49:09;;;;;;;1.83;0.30;;;23.20;93.50;;;;;;4968059;29;20027;-93
2021/01/09 03:52:31;;;;;;;0.68;0.17;;;23.20;93.20;;;;;;4950630;29;20130;-94
2021/01/09 03:54:58;;;;;;;1.00;0.20;;;23.20;93.00;;;;;;4879892;29;20096;-92
2021/01/09 03:57:33;;;;;;;0.40;0.20;;;23.20;93.00;;;;;;4950422;29;20110;-90
2021/01/09 04:00:00;;;;;;;2.45;0.30;;;23.20;93.10;;;;;;4949438;29;20054;-90
2021/01/09 04:02:27;;;;;;;0.65;0.10;;;23.20;93.00;;;;;;4950911;29;20031;-93
2021/01/09 04:05:13;;;;;;;1.73;0.52;;;23.20;92.90;;;;;;4950323;29;20058;-93
2021/01/09 04:07:52;;;;;;;0.28;0.20;;;23.20;93.30;;;;;;4950672;29;20031;-90
2021/01/09 04:10:22;;;;;;;1.02;0.20;;;23.20;92.80;;;;;;4950947;29;20066;-92
2021/01/09 04:12:51;;;;;;;0.80;0.20;;;23.20;92.70;;;;;;4950516;29;20031;-93
2021/01/09 04:15:45;;;;;;;2.35;0.20;;;23.20;92.50;;;;;;4950963;29;20314;-94
2021/01/09 04:18:12;;;;;;;1.63;0.20;;;23.30;92.70;;;;;;4948925;29;20287;-92
2021/01/09 04:20:48;;;;;;;0.13;0.10;;;23.30;92.50;;;;;;4950271;29;20065;-91
2021/01/09 04:23:22;;;;;;;0.38;0.20;;;23.30;92.60;;;;;;4949961;29;20054;-95
2021/01/09 04:26:24;;;;;;;1.70;0.30;;;23.40;93.10;;;;;;4934924;29;20042;-95
2021/01/09 04:28:54;;;;;;;0.80;0.20;;;23.40;93.70;;;;;;4950821;29;20038;-95
2021/01/09 04:31:27;;;;;;;1.08;0.20;;;23.40;93.80;;;;;;4959723;29;20346;-93
2021/01/09 04:33:56;;;;;;;3.70;0.28;;;23.40;93.30;;;;;;4967395;28;20111;-93
2021/01/09 04:39:35;;;;;;;0.88;0.22;;;23.40;92.90;;;;;;4967823;29;20098;-94
2021/01/09 04:42:11;;;;;;;0.85;0.30;;;23.40;92.90;;;;;;4950742;29;20031;-96
2021/01/09 04:44:38;;;;;;;1.00;0.13;;;23.40;92.80;;;;;;4967515;29;20043;-94
2021/01/09 04:47:07;;;;;;;0.30;0.20;;;23.40;92.80;;;;;;4951224;29;20298;-94
2021/01/09 04:49:52;;;;;;;1.40;0.28;;;23.40;92.70;;;;;;4951763;29;20043;-91
2021/01/09 04:52:19;;;;;;;1.48;0.28;;;23.40;92.70;;;;;;4953068;29;20050;-94
2021/01/09 04:55:22;;;;;;;1.15;0.30;;;23.40;92.90;;;;;;4949874;29;20035;-92
2021/01/09 04:57:50;;;;;;;1.27;0.30;;;23.40;92.70;;;;;;4877613;29;20025;-94
2021/01/09 05:00:18;;;;;;;3.30;0.22;;;23.40;92.40;;;;;;4951236;29;20039;-93
2021/01/09 05:02:45;;;;;;;1.20;0.30;;;23.40;92.50;;;;;;4952599;29;20320;-93
2021/01/09 05:05:13;;;;;;;0.82;0.20;;;23.40;92.10;;;;;;4950107;29;20271;-94
2021/01/09 05:07:41;;;;;;;0.90;0.20;;;23.40;92.50;;;;;;4953104;29;20039;-92
2021/01/09 05:10:12;;;;;;;1.80;0.22;;;23.40;92.30;;;;;;4955972;29;20075;-94
2021/01/09 05:12:41;;;;;;;0.60;0.20;;;23.40;92.50;;;;;;4950601;29;20066;-94
2021/01/09 05:15:08;;;;;;;1.67;0.40;;;23.40;92.40;;;;;;4954822;29;20027;-94
2021/01/09 05:17:37;;;;;;;1.05;0.20;;;23.40;92.60;;;;;;4949014;29;20035;-94
2021/01/09 05:20:08;;;;;;;1.75;0.10;;;23.50;92.40;;;;;;4934638;29;20058;-95
2021/01/09 05:22:39;;;;;;;0.95;0.50;;;23.50;92.80;;;;;;4949532;29;20319;-94
2021/01/09 05:25:06;;;;;;;0.77;0.20;;;23.50;92.80;;;;;;4949552;29;20031;-95
2021/01/09 05:27:35;;;;;;;1.45;0.20;;;23.50;92.70;;;;;;4949759;29;20075;-95
2021/01/09 05:30:03;;;;;;;1.10;0.20;;;23.50;92.70;;;;;;4949304;29;20037;-93
2021/01/09 05:32:33;;;;;;;0.57;0.15;;;23.50;92.80;;;;;;4949352;29;20251;-94
2021/01/09 05:35:12;;;;;;;1.02;0.30;;;23.50;93.20;;;;;;4933556;29;20347;-93
2021/01/09 05:37:39;;;;;;;0.65;0.20;;;23.50;92.80;;;;;;4949455;29;20087;-94
2021/01/09 05:40:09;;;;;;;1.02;0.13;;;23.50;92.60;;;;;;4949927;29;20096;-94
2021/01/09 05:42:36;;;;;;;1.38;0.30;;;23.50;93.30;;;;;;4949906;29;20046;-94
2021/01/09 05:45:03;;;;;;;0.60;0.30;;;23.50;93.30;;;;;;4948310;29;20219;-94
2021/01/09 05:47:31;;;;;;;1.50;0.20;;;23.60;93.10;;;;;;4949164;29;20074;-96
2021/01/09 05:49:59;;;;;;;0.90;0.20;;;23.60;93.10;;;;;;4949432;29;20063;-94
2021/01/09 05:52:27;;;;;;;1.80;0.30;;;23.60;93.40;;;;;;4949363;29;20035;-93
2021/01/09 05:55:02;;;;;;;2.25;0.30;;;23.60;93.20;;;;;;4949544;29;20023;-95
2021/01/09 05:57:36;;;;;;;0.45;0.10;;;23.60;93.70;;;;;;4933516;29;20039;-93
2021/01/09 06:00:10;;;;;;;0.85;0.30;;;23.60;93.50;;;;;;4949102;29;20055;-94
2021/01/09 06:03:06;;;;;;;0.65;0.20;;;23.50;93.50;;;;;;4949338;29;20057;-94
2021/01/09 06:05:42;;;;;;;1.23;0.30;;;23.50;93.60;;;;;;4950038;29;20058;-93
2021/01/09 06:08:13;;;;;;;1.42;0.40;;;23.40;93.90;;;;;;4953246;29;20109;-94
2021/01/09 06:10:41;;;;;;;1.40;0.20;;;23.40;93.80;;;;;;4953667;29;20329;-94
2021/01/09 06:13:12;;;;;;;2.58;0.22;;;23.40;93.60;;;;;;4953293;29;20055;-94
2021/01/09 06:15:43;;;;;;;2.28;0.25;;;23.40;93.30;;;;;;4952801;29;20311;-91
2021/01/09 06:18:10;;;;;;;0.95;0.40;;;23.30;93.30;;;;;;4953474;29;20085;-94
2021/01/09 06:20:38;;;;;;;0.90;0.20;;;23.40;93.30;;;;;;4952743;29;20342;-94
2021/01/09 06:23:05;;;;;;;1.10;0.30;;;23.40;93.70;;;;;;4937106;29;20043;-94
2021/01/09 06:25:35;;;;;;;1.92;0.35;;;23.30;93.60;;;;;;4952720;29;20062;-94
2021/01/09 06:28:05;;;;;;;2.05;0.43;;;23.30;93.90;;;;;;4952781;29;20407;-94
2021/01/09 06:30:38;;;;;;;1.75;0.30;;;23.20;93.50;;;;;;4952854;29;20031;-94
2021/01/09 06:33:11;;;;;;;5.60;0.20;;;23.20;93.80;;;;;;4952730;29;20107;-93
2021/01/09 06:35:38;;;;;;;;;;;23.20;93.60;;;;;;4953113;29;20027;-93
2021/01/09 06:38:07;;;;;;;0.65;0.20;;;23.20;93.60;;;;;;4952602;29;19910;-94
2021/01/09 06:40:34;;;;;;;1.70;0.30;;;23.10;93.80;;;;;;4952610;29;20027;-93
2021/01/09 06:43:01;;;;;;;2.17;0.30;;;23.10;93.80;;;;;;4952243;29;20066;-93
2021/01/09 06:45:30;;;;;;;2.00;0.47;;;23.10;94.00;;;;;;4952183;29;20418;-93
2021/01/09 06:48:12;;;;;;;0.47;0.20;;;23.10;94.10;;;;;;4952637;29;20082;-94
2021/01/09 06:50:43;;;;;;;0.52;0.20;;;23.10;94.10;;;;;;4969943;29;20115;-94
2021/01/09 06:54:03;;;;;;;1.48;0.30;;;23.10;94.10;;;;;;4922094;29;20272;-93
2021/01/09 06:56:32;;;;;;;0.88;0.30;;;23.10;94.20;;;;;;4890573;29;20113;-93
2021/01/09 06:59:03;;;;;;;1.15;0.47;;;23.10;94.10;;;;;;4875884;29;20096;-94
2021/01/09 07:01:44;;;;;;;0.98;0.70;;;23.10;94.10;;;;;;4935672;29;20039;-93
2021/01/09 07:04:11;;;;;;;0.40;0.30;;;23.10;94.20;;;;;;4951731;29;20027;-92
2021/01/09 07:06:59;;;;;;;2.58;0.40;;;23.10;94.30;;;;;;4967859;29;20122;-93
2021/01/09 07:09:33;;;;;;;0.50;0.40;;;23.10;94.20;;;;;;4951162;29;20323;-93
2021/01/09 07:12:12;;;;;;;1.05;0.40;;;23.00;94.40;;;;;;4951110;29;20038;-93
2021/01/09 07:14:45;;;;;;;0.85;0.50;;;23.00;94.40;;;;;;4951888;29;20043;-94
2021/01/09 07:17:18;;;;;;;;;;;23.00;94.50;;;;;;4968510;28;20050;-94
2021/01/09 07:19:53;;;;;;;0.98;0.60;;;23.00;94.30;;;;;;4952201;29;19907;-92
2021/01/09 07:22:24;;;;;;;0.98;0.45;;;23.00;94.40;;;;;;4951765;29;20041;-92
2021/01/09 07:24:57;;;;;;;7.97;4.43;;;22.90;94.40;;;;;;4967656;29;20042;-93
2021/01/09 07:27:40;;;;;;;5.53;2.50;;;22.90;94.40;;;;;;4936568;29;20035;-94
2021/01/09 07:30:17;;;;;;;1.88;1.13;;;22.90;94.40;;;;;;4967843;29;20319;-94
2021/01/09 07:32:54;;;;;;;4.00;1.60;;;22.80;94.80;;;;;;4937038;29;20032;-94
2021/01/09 07:36:13;;;;;;;3.00;1.50;;;22.80;95.10;;;;;;4968095;29;20235;-94
2021/01/09 07:38:55;;;;;;;1.42;1.13;;;22.90;94.90;;;;;;4968581;29;20035;-93
2021/01/09 07:41:44;;;;;;;3.95;1.00;;;22.90;94.90;;;;;;4951458;29;20042;-93
2021/01/09 07:44:30;;;;;;;1.92;0.90;;;22.90;95.10;;;;;;4968276;29;20223;-93
2021/01/09 07:47:05;;;;;;;1.83;1.00;;;22.90;95.00;;;;;;4952733;29;20042;-94
2021/01/09 07:49:37;;;;;;;2.78;0.88;;;22.90;94.90;;;;;;4948479;29;20035;-94
2021/01/09 07:52:08;;;;;;;1.02;0.70;;;22.90;94.80;;;;;;4950034;29;20031;-94
2021/01/09 07:54:54;;;;;;;0.95;0.60;;;23.00;94.70;;;;;;4950652;29;20314;-92
2021/01/09 07:57:26;;;;;;;1.85;0.77;;;23.00;94.70;;;;;;4967134;29;20375;-92
2021/01/09 08:00:00;;;;;;;2.30;0.73;;;23.00;94.80;;;;;;4950976;29;20035;-93
2021/01/09 08:02:30;;;;;;;1.10;0.70;;;23.00;94.80;;;;;;4968281;29;20031;-91
2021/01/09 08:05:19;;;;;;;1.50;0.73;;;23.00;95.00;;;;;;4950428;29;20097;-92
2021/01/09 08:07:56;;;;;;;1.83;0.98;;;23.00;94.90;;;;;;4951967;29;20039;-92
2021/01/09 08:10:37;;;;;;;1.50;0.63;;;23.00;94.90;;;;;;4950681;29;20035;-93
2021/01/09 08:13:17;;;;;;;1.52;0.70;;;23.00;94.70;;;;;;4968155;29;20035;-91
2021/01/09 08:15:57;;;;;;;0.85;0.50;;;23.00;94.60;;;;;;4967737;29;20034;-93
2021/01/09 08:18:31;;;;;;;3.83;1.20;;;23.00;94.60;;;;;;4950648;29;20082;-93
2021/01/09 08:20:59;;;;;;;0.75;0.70;;;23.00;94.70;;;;;;4967530;29;20035;-94
2021/01/09 08:23:33;;;;;;;1.75;0.40;;;23.00;95.10;;;;;;4966215;29;20106;-94
2021/01/09 08:26:21;;;;;;;4.18;0.70;;;23.00;95.10;;;;;;4950266;29;20314;-94
2021/01/09 08:28:57;;;;;;;1.05;0.47;;;22.90;95.30;;;;;;4919921;29;20031;-93
2021/01/09 08:31:48;;;;;;;0.80;0.60;;;22.90;95.30;;;;;;4950588;29;20046;-94
2021/01/09 08:34:16;;;;;;;0.77;0.60;;;22.80;95.10;;;;;;4949906;29;20059;-93
2021/01/09 08:36:57;;;;;;;1.55;0.47;;;22.80;95.10;;;;;;4947795;29;20150;-93
2021/01/09 08:39:27;;;;;;;1.60;0.40;;;22.80;95.00;;;;;;4964334;29;20065;-93
2021/01/09 08:41:59;;;;;;;1.95;0.60;;;22.90;94.90;;;;;;4965486;29;20039;-93
2021/01/09 08:44:47;;;;;;;0.30;0.30;;;22.90;95.00;;;;;;4948148;29;20078;-92
2021/01/09 08:47:19;;;;;;;5.43;0.77;;;22.90;95.40;;;;;;4908414;29;20062;-92
2021/01/09 08:49:55;;;;;;;1.00;0.60;;;22.80;95.10;;;;;;4908142;29;20044;-93
2021/01/09 08:52:48;;;;;;;2.65;0.60;;;22.80;95.00;;;;;;4892595;29;20125;-92
2021/01/09 08:55:19;;;;;;;2.40;0.70;;;22.80;95.30;;;;;;4888497;29;20033;-93
2021/01/09 08:57:53;;;;;;;2.35;0.60;;;22.80;95.60;;;;;;4888961;29;20037;-95
2021/01/09 09:00:26;;;;;;;1.40;0.60;;;22.80;95.40;;;;;;4887786;29;20037;-92
2021/01/09 09:02:56;;;;;;;1.90;0.68;;;22.90;95.30;;;;;;4892399;29;20364;-93
2021/01/09 09:05:35;;;;;;;1.52;0.60;;;22.80;95.60;;;;;;4889111;29;20096;-93
2021/01/09 09:08:12;;;;;;;1.40;0.60;;;22.80;95.40;;;;;;4889597;29;20044;-92
2021/01/09 09:10:52;;;;;;;0.75;0.50;;;22.80;95.20;;;;;;4888916;29;20036;-93
2021/01/09 09:23:59;;;;;;;1.00;0.70;;;22.80;95.90;;;;;;4889026;29;20020;-91
2021/01/09 09:26:38;;;;;;;2.08;0.80;;;22.90;96.00;;;;;;4873701;29;20037;-93
2021/01/09 09:29:13;;;;;;;2.85;0.70;;;22.80;95.90;;;;;;4888856;29;20045;-94
2021/01/09 09:32:03;;;;;;;1.10;0.70;;;22.80;95.80;;;;;;4873304;29;20033;-93
2021/01/09 09:34:45;;;;;;;6.88;1.85;;;22.90;96.00;;;;;;4852032;29;20034;-94
2021/01/09 09:37:35;;;;;;;1.48;0.60;;;22.90;95.60;;;;;;4858023;29;20025;-93
2021/01/09 09:40:26;;;;;;;2.45;0.70;;;22.80;96.00;;;;;;4836006;29;20042;-92
2021/01/09 09:43:17;;;;;;;2.67;1.00;;;22.90;95.50;;;;;;4836211;29;20075;-93
2021/01/09 09:46:15;;;;;;;1.15;0.80;;;22.90;95.30;;;;;;4833481;29;20298;-92
2021/01/09 09:48:42;;;;;;;1.08;0.80;;;22.90;95.50;;;;;;4836518;29;20394;-93
2021/01/09 09:51:15;;;;;;;1.65;0.75;;;22.90;95.40;;;;;;4851735;29;20042;-93
2021/01/09 09:53:59;;;;;;;1.40;0.70;;;22.90;95.50;;;;;;4849924;29;20034;-93
2021/01/09 09:56:27;;;;;;;2.28;0.70;;;22.90;95.20;;;;;;4836583;29;20030;-94
2021/01/09 10:05:53;;;;;;;2.08;0.60;;;22.80;95.00;;;;;;4856906;29;20137;-95
2021/01/09 10:08:30;;;;;;;3.05;1.20;;;22.80;95.00;;;;;;4837705;29;20042;-93
2021/01/09 10:10:59;;;;;;;2.00;0.55;;;22.80;95.20;;;;;;4842361;29;20108;-91
2021/01/09 10:13:32;;;;;;;11.63;7.47;;;22.90;95.00;;;;;;4854306;29;20045;-94
2021/01/09 10:16:10;;;;;;;87.50;67.97;;;22.90;95.40;;;;;;4869781;29;20040;-93
2021/01/09 10:19:02;;;;;;;22.05;18.13;;;22.90;95.40;;;;;;4925436;29;20046;-93
2021/01/09 10:21:39;;;;;;;3.40;1.40;;;22.90;95.50;;;;;;4894629;29;20375;-92
2021/01/09 10:24:12;;;;;;;1.77;0.80;;;22.90;94.80;;;;;;4932854;29;20035;-94
2021/01/09 10:26:41;;;;;;;0.70;0.60;;;23.00;94.60;;;;;;4965851;29;20030;-92
2021/01/09 10:29:11;;;;;;;2.45;0.60;;;22.90;94.50;;;;;;4948798;29;20102;-92
2021/01/09 10:31:40;;;;;;;2.13;0.70;;;22.90;94.60;;;;;;4966048;29;20030;-93
2021/01/09 10:34:15;;;;;;;2.92;0.95;;;22.90;94.50;;;;;;4931807;29;20211;-92
2021/01/09 10:37:11;;;;;;;0.60;0.38;;;22.90;94.60;;;;;;4962376;29;20228;-92
2021/01/09 10:39:37;;;;;;;1.65;0.63;;;22.90;94.40;;;;;;4948541;29;20035;-92
2021/01/09 10:42:04;;;;;;;2.15;0.50;;;23.00;94.20;;;;;;4965097;29;20058;-94
2021/01/09 10:44:42;;;;;;;1.38;0.70;;;22.90;94.10;;;;;;4932799;29;20382;-92
2021/01/09 10:47:27;;;;;;;3.15;0.68;;;23.00;94.00;;;;;;4965826;28;20039;-92
2021/01/09 10:50:01;;;;;;;1.17;0.80;;;23.00;93.50;;;;;;4965475;28;20039;-92
2021/01/09 10:52:40;;;;;;;2.58;0.73;;;23.10;93.50;;;;;;4969232;28;20094;-93
2021/01/09 10:55:26;;;;;;;3.03;0.63;;;23.10;93.30;;;;;;4970245;29;20358;-93
2021/01/09 10:57:54;;;;;;;1.60;0.55;;;23.10;93.00;;;;;;4969888;29;20102;-93
2021/01/09 11:00:21;;;;;;;0.82;0.40;;;23.20;93.00;;;;;;4953885;29;20059;-93
2021/01/09 11:02:50;;;;;;;2.40;0.50;;;23.20;92.70;;;;;;4968712;29;20035;-94
2021/01/09 11:05:18;;;;;;;0.65;0.50;;;23.20;93.00;;;;;;4966635;29;20210;-94
2021/01/09 11:07:49;;;;;;;3.70;1.00;;;23.20;92.90;;;;;;4951636;29;20043;-93
2021/01/09 11:10:36;;;;;;;1.58;1.08;;;23.20;92.80;;;;;;4969264;29;20047;-92
2021/01/09 11:13:08;;;;;;;2.65;1.00;;;23.30;93.00;;;;;;4969560;29;20026;-93
2021/01/09 11:15:35;;;;;;;1.40;0.70;;;23.30;93.00;;;;;;4971770;29;20062;-94
2021/01/09 11:18:02;;;;;;;0.85;0.60;;;23.40;92.80;;;;;;4955251;29;20027;-92
2021/01/09 11:20:38;;;;;;;2.10;0.80;;;23.40;92.70;;;;;;4950993;29;20032;-93
2021/01/09 11:23:07;;;;;;;1.58;1.30;;;23.40;92.90;;;;;;4952347;29;20039;-93
2021/01/09 11:25:42;;;;;;;2.00;1.80;;;23.50;92.70;;;;;;4937409;29;20035;-91
2021/01/09 11:28:19;;;;;;;6.07;2.58;;;23.50;92.60;;;;;;4955316;29;20042;-91
2021/01/09 11:30:50;;;;;;;5.18;3.10;;;23.60;92.60;;;;;;4969995;29;20313;-93
2021/01/09 11:36:57;;;;;;;2.88;2.13;;;23.70;92.90;;;;;;4890973;29;20036;-94
2021/01/09 11:39:23;;;;;;;4.13;1.40;;;23.80;92.90;;;;;;4936162;29;20035;-93
2021/01/09 11:42:18;;;;;;;4.50;1.60;;;23.90;92.70;;;;;;4951440;29;20035;-94
2021/01/09 11:44:47;;;;;;;1.40;1.10;;;24.00;92.90;;;;;;4955009;29;20042;-93
2021/01/09 11:47:15;;;;;;;1.83;1.20;;;24.10;92.60;;;;;;4951572;29;20315;-92
2021/01/09 11:49:44;;;;;;;2.67;1.30;;;24.30;92.30;;;;;;4969015;29;20034;-93
2021/01/09 11:52:12;;;;;;;1.80;1.08;;;24.30;92.00;;;;;;4968125;29;20116;-92
2021/01/09 11:55:02;;;;;;;3.53;1.20;;;24.50;91.60;;;;;;4952316;29;20027;-92
2021/01/09 11:57:29;;;;;;;2.97;1.00;;;24.80;91.60;;;;;;4951485;29;20295;-92
2021/01/09 11:59:55;;;;;;;4.53;2.05;;;24.90;91.00;;;;;;4952074;29;20035;-93
2021/01/09 12:02:22;;;;;;;3.50;1.55;;;25.10;90.20;;;;;;4954101;29;20054;-93
2021/01/09 12:04:49;;;;;;;3.85;1.33;;;25.10;90.40;;;;;;4953085;29;20382;-90
2021/01/09 12:07:15;;;;;;;1.60;1.20;;;25.30;90.00;;;;;;4956076;29;20059;-91
2021/01/09 12:09:42;;;;;;;1.60;0.75;;;25.30;89.40;;;;;;4951370;29;20031;-93
2021/01/09 12:12:10;;;;;;;0.70;0.60;;;25.50;88.90;;;;;;4969046;29;20150;-92
2021/01/09 12:14:37;;;;;;;1.58;0.77;;;25.60;89.40;;;;;;4951270;29;20031;-92
2021/01/09 12:17:06;;;;;;;1.88;0.80;;;25.70;89.20;;;;;;4951345;29;20054;-93
2021/01/09 12:19:33;;;;;;;2.65;0.85;;;25.90;89.60;;;;;;4950860;29;20031;-93
2021/01/09 12:22:01;;;;;;;1.80;0.85;;;25.90;89.80;;;;;;4969267;29;20050;-93
2021/01/09 12:24:28;;;;;;;2.13;0.90;;;26.00;89.10;;;;;;4954153;29;20042;-93
2021/01/09 12:26:55;;;;;;;2.40;1.05;;;26.10;89.80;;;;;;4951032;29;20035;-94
2021/01/09 12:29:22;;;;;;;1.77;0.98;;;26.10;88.00;;;;;;4951759;29;20027;-95
2021/01/09 12:32:00;;;;;;;5.10;1.02;;;26.00;89.80;;;;;;4955870;29;20212;-92
2021/01/09 12:34:27;;;;;;;1.13;0.63;;;26.10;89.30;;;;;;4950526;29;20027;-94
2021/01/09 12:36:54;;;;;;;1.63;1.00;;;26.10;88.30;;;;;;4950588;29;20318;-94
2021/01/09 12:39:21;;;;;;;2.63;1.08;;;26.30;88.20;;;;;;4951193;29;20038;-92
2021/01/09 12:41:51;;;;;;;2.15;1.17;;;26.50;87.30;;;;;;4950750;29;20043;-95
2021/01/09 12:44:17;;;;;;;0.85;0.70;;;26.70;86.50;;;;;;4950404;29;20066;-95
2021/01/09 12:46:47;;;;;;;1.80;0.75;;;26.60;85.50;;;;;;4950067;29;20114;-91
2021/01/09 12:49:18;;;;;;;3.00;1.02;;;26.60;86.70;;;;;;4950334;29;20035;-94
2021/01/09 12:51:46;;;;;;;3.25;1.55;;;26.60;86.00;;;;;;4950478;29;20038;-93
2021/01/09 12:54:13;;;;;;;3.75;1.08;;;26.50;85.70;;;;;;4950345;29;20055;-93
2021/01/09 12:56:40;;;;;;;1.42;1.02;;;26.50;87.10;;;;;;4950074;29;20063;-94
2021/01/09 12:59:10;;;;;;;2.72;1.10;;;26.60;86.00;;;;;;4952535;29;20146;-94
2021/01/09 13:01:39;;;;;;;1.40;0.85;;;26.60;86.90;;;;;;4950343;29;20118;-93
2021/01/09 13:04:07;;;;;;;2.55;1.52;;;26.60;88.40;;;;;;4950347;29;20031;-93
2021/01/09 13:06:42;;;;;;;2.67;1.10;;;26.50;89.00;;;;;;4949917;29;20035;-93
2021/01/09 13:09:12;;;;;;;2.60;0.90;;;26.20;89.60;;;;;;4951378;29;20027;-94
2021/01/09 13:11:39;;;;;;;2.97;1.58;;;26.10;89.50;;;;;;4949827;29;20031;-93
2021/01/09 13:14:15;;;;;;;2.10;0.98;;;26.10;89.40;;;;;;4950764;28;20038;-93
2021/01/09 13:17:11;;;;;;;1.80;1.17;;;25.90;90.20;;;;;;4949893;29;20039;-95
2021/01/09 13:19:38;;;;;;;3.45;1.10;;;25.80;90.10;;;;;;4949690;29;20098;-94
2021/01/09 13:22:05;;;;;;;2.47;1.13;;;26.00;90.70;;;;;;4950128;29;20035;-93
2021/01/09 13:24:50;;;;;;;1.52;0.75;;;26.10;89.10;;;;;;4949233;29;20035;-93
2021/01/09 13:27:20;;;;;;;2.17;0.93;;;26.10;90.20;;;;;;4950010;29;20039;-94
2021/01/09 13:29:57;;;;;;;10.15;0.70;;;26.30;90.50;;;;;;4949508;29;20219;-93
2021/01/09 13:32:25;;;;;;;3.75;0.77;;;26.40;88.60;;;;;;4950010;29;20031;-93
2021/01/09 13:34:52;;;;;;;0.98;0.70;;;26.50;88.90;;;;;;4949575;29;20027;-93
2021/01/09 13:37:19;;;;;;;1.27;0.82;;;26.60;88.40;;;;;;4949382;29;20227;-93
2021/01/09 13:39:45;;;;;;;2.58;0.90;;;26.60;86.50;;;;;;4949339;29;20031;-95
2021/01/09 13:42:12;;;;;;;5.03;0.90;;;26.70;87.30;;;;;;4950099;29;20039;-93
2021/01/09 13:44:39;;;;;;;2.60;0.98;;;26.80;86.80;;;;;;4949624;29;20248;-95
2021/01/09 13:47:09;;;;;;;5.65;4.32;;;26.80;87.00;;;;;;4949582;29;20039;-94
2021/01/09 13:49:38;;;;;;;4.75;1.60;;;26.80;87.00;;;;;;4949623;29;20035;-93
2021/01/09 13:52:05;;;;;;;1.70;1.00;;;26.80;86.20;;;;;;4949883;29;20038;-93
2021/01/09 13:54:31;;;;;;;3.38;1.00;;;26.80;86.70;;;;;;4949582;29;20320;-92
2021/01/09 13:56:58;;;;;;;1.25;1.00;;;26.90;86.90;;;;;;4950164;29;20039;-93
2021/01/09 13:59:30;;;;;;;2.45;1.67;;;27.20;87.00;;;;;;4949202;29;20027;-93
2021/01/09 14:01:58;;;;;;;2.60;1.40;;;27.50;85.10;;;;;;4949090;29;20219;-93
2021/01/09 14:04:24;;;;;;;3.58;1.10;;;27.40;85.00;;;;;;4949821;29;20027;-92